Latest METARs, TAFs and NOTAMs for SKCL


---------------------------------------------------------------------------
	(OBSERVATIONS)
SKCL 311100Z 00000KT 9999 BKN040 21/19 A2994=
SKCL 311030Z VRB02KT 9999 FEW030 BKN090 21/19 A2994=
SKCL 311000Z 02003KT 9999 FEW030 BKN090 21/19 A2993=
SKCL 310900Z 35007KT 9999 FEW025 BKN090 21/19 A2992=
---------------------------------------------------------------------------
	(TERMINAL AREA FORECAST)
SKCL 311000Z 311212 VRB02KT 9999 FEW020 SCT100 PROB40
    3112/3113
    5000 BCFG SCT015
    TEMPO 3117/3123 32009KT SCT025TCU PROB40 3120/3123
    8000 RA
    SCT020CB
    TEMPO 0100/0102 8000 -DZ SCT018
    TEMPO 0109/0112 7000 VCFG SCT015 TX31/3119Z
    TN20/0111Z=
---------------------------------------------------------------------------
	(NOTAMS)


SKCL A0059/15 FLIGHT PLAN PROCESSING AND FILING FPL LTD DUE TO
    FAILURE CLO FDP. 08 JAN 15:30 2015 UNTIL 08 APR 23:59 2015
    ESTIMATED. CREATED: 08 JAN 15:31 2015

SKCL A0085/15 TRAINING ZONE NE, SE-, SE-2 NOT AVBL. 1500-2100,
    11 JAN 15:00 2015 UNTIL 05 FEB 21:00 2015. CREATED: 11 JAN
    15:24 2015

SKCL A0106/15 TWY A,B,C,C1,C2,D,E,F,G WIP, EXER CTN. H24, 14
    JAN 20:10 2015 UNTIL 30 APR 23:59 2015. CREATED: 14 JAN 20:24
    2015

SKCL A0108/15 RWY 01/19 TURNING BAY LTD, ACFT PROHIBITED PARALLEL
    OR ONE SURPASSES THE OTHER ACFT, EXER CTN. H24, 14 JAN 20:55
    2015 UNTIL 30 APR 23:59 2015. CREATED: 14 JAN 21:01 2015

SKCL A0109/15 APRON, CARGO APRON AND DECONGESTION APRON WIP,
    EXER CTN. H24, 14 JAN 21:15 2015 UNTIL 30 APR 23:59 2015.
    CREATED: 14 JAN 21:15 2015

SKCL A3323/14 SEQUENCED FLG LGT RWY 01 U/S. 04 NOV 13:59 2014
    UNTIL 04 FEB 23:59 2015 ESTIMATED. CREATED: 04 NOV 13:59
    2014

SKCL A3500/14 MOV AREA WO VERTICAL SIGNALLING, EXER CTN. DAILY
    H24, 19 NOV 15:30 2014 UNTIL 28 FEB 11:00 2015. CREATED:
    01 DEC 09:49 2014

SKCL A3809/14 DLY BTN 1100-1300 AND 0130-0500 NO FLT TRAINING
    RWY 01/19 ARE ALLOWED, HR INDICATED REF. AIP COLOMBIA AD
    2 SKCL 3 ITEM 20. 18 DEC 17:40 2014 UNTIL PERM. CREATED:
    18 DEC 20:23 2014

SKCL V0003/15 [DOD PROCEDURAL NOTAM] INSTRUMENT APPROACH PROCEDURE
    NOT AUTHORIZED: ILS RWY 01 AMDT 1, VOR RWY 19 ORIG, ANKIN
    5A, 5B DEP, BUN 6A DEP, BUN 6C DEP NOT AUTHORIZED UFN. 12
    JAN 15:31 2015 UNTIL 30 APR 23:59 2015. CREATED: 12 JAN 15:33
    2015

---------------------------------------------------------------------------